Time;durP1;ratioP1;P1;durP2;ratioP2;P2;SDS_P1;SDS_P2;PMS_P1;PMS_P2;Temp;Humidity;BMP_temperature;BMP_pressure;BME280_temperature;BME280_humidity;BME280_pressure;Samples;Min_cycle;Max_cycle;Signal;HPM_P1;HPM_P2
2021/04/25 00:02:09;;;;;;;5.00;4.50;;;;;;;;;;5012946;28;20476;-63
2021/04/25 00:04:35;;;;;;;8.03;4.73;;;;;;;;;;5009400;28;20459;-63
2021/04/25 00:07:02;;;;;;;5.30;4.40;;;;;;;;;;4993326;28;20447;-63
2021/04/25 00:09:29;;;;;;;5.17;4.03;;;;;;;;;;4994662;28;20450;-63
2021/04/25 00:11:55;;;;;;;8.30;4.60;;;;;;;;;;5033471;23;21221;-61
2021/04/25 00:14:22;;;;;;;5.07;4.57;;;;;;;;;;5008442;28;20465;-61
2021/04/25 00:16:49;;;;;;;5.50;4.97;;;;;;;;;;5015680;28;20472;-61
2021/04/25 00:19:16;;;;;;;8.77;4.70;;;;;;;;;;5013018;28;20456;-61
2021/04/25 00:21:43;;;;;;;6.73;5.13;;;;;;;;;;5027882;28;20445;-61
2021/04/25 00:24:09;;;;;;;8.63;4.97;;;;;;;;;;5018212;28;20464;-62
2021/04/25 00:26:36;;;;;;;9.37;4.57;;;;;;;;;;5012189;28;20797;-62
2021/04/25 00:29:03;;;;;;;8.13;4.47;;;;;;;;;;5011877;28;20460;-61
2021/04/25 00:31:29;;;;;;;4.63;4.17;;;;;;;;;;5010523;28;20482;-61
2021/04/25 00:33:57;;;;;;;5.47;4.17;;;;;;;;;;5011422;28;20520;-61
2021/04/25 00:36:23;;;;;;;5.90;3.87;;;;;;;;;;5011981;28;20453;-61
2021/04/25 00:38:50;;;;;;;5.17;4.27;;;;;;;;;;5011960;28;20945;-61
2021/04/25 00:41:17;;;;;;;7.00;4.93;;;;;;;;;;5011083;28;20456;-61
2021/04/25 00:43:43;;;;;;;4.80;4.30;;;;;;;;;;5011422;28;20893;-61
2021/04/25 00:46:10;;;;;;;6.77;3.97;;;;;;;;;;5011296;28;20454;-61
2021/04/25 00:48:36;;;;;;;8.80;4.23;;;;;;;;;;5012113;28;20497;-62
2021/04/25 00:51:04;;;;;;;6.13;4.70;;;;;;;;;;5010592;28;20947;-61
2021/04/25 00:53:31;;;;;;;4.90;3.93;;;;;;;;;;5011846;28;20477;-61
2021/04/25 00:55:58;;;;;;;4.40;4.00;;;;;;;;;;5011173;28;20450;-61
2021/04/25 00:58:24;;;;;;;8.47;4.10;;;;;;;;;;5011836;28;20457;-62
2021/04/25 01:00:51;;;;;;;11.00;4.60;;;;;;;;;;5011299;28;20844;-61
2021/04/25 01:03:22;;;;;;;5.97;4.50;;;;;;;;;;5011676;28;20465;-61
2021/04/25 01:05:49;;;;;;;5.00;4.60;;;;;;;;;;5011080;28;20807;-61
2021/04/25 01:08:16;;;;;;;6.20;3.93;;;;;;;;;;5011358;28;20453;-61
2021/04/25 01:10:43;;;;;;;8.30;4.33;;;;;;;;;;5011633;28;20488;-61
2021/04/25 01:13:09;;;;;;;9.60;4.00;;;;;;;;;;5011433;28;20485;-62
2021/04/25 01:15:36;;;;;;;9.60;4.93;;;;;;;;;;5011261;28;20945;-61
2021/04/25 01:18:03;;;;;;;6.60;3.97;;;;;;;;;;5011715;28;20458;-62
2021/04/25 01:20:30;;;;;;;7.20;4.33;;;;;;;;;;5011873;28;20449;-61
2021/04/25 01:22:58;;;;;;;5.40;3.87;;;;;;;;;;5011620;28;20484;-61
2021/04/25 01:25:26;;;;;;;9.93;4.27;;;;;;;;;;5011474;28;20449;-62
2021/04/25 01:27:53;;;;;;;5.40;3.83;;;;;;;;;;5011377;28;20980;-62
2021/04/25 01:30:21;;;;;;;5.60;4.23;;;;;;;;;;5011811;28;20484;-62
2021/04/25 01:32:48;;;;;;;5.97;4.50;;;;;;;;;;5010868;28;20473;-61
2021/04/25 01:35:16;;;;;;;9.03;3.90;;;;;;;;;;5011173;28;20457;-61
2021/04/25 01:37:42;;;;;;;7.67;4.03;;;;;;;;;;5011120;28;20453;-62
2021/04/25 01:40:10;;;;;;;10.77;3.97;;;;;;;;;;5011336;28;20937;-61
2021/04/25 01:42:37;;;;;;;4.30;3.87;;;;;;;;;;5011248;28;20474;-61
2021/04/25 01:45:05;;;;;;;4.40;4.00;;;;;;;;;;5015315;28;20453;-61
2021/04/25 01:47:31;;;;;;;5.93;4.10;;;;;;;;;;5014842;28;20449;-61
2021/04/25 01:49:58;;;;;;;5.67;4.50;;;;;;;;;;5014463;28;20449;-61
2021/04/25 01:52:24;;;;;;;6.37;4.20;;;;;;;;;;5014812;28;20473;-61
2021/04/25 01:54:51;;;;;;;5.10;4.17;;;;;;;;;;5014471;28;20523;-61
2021/04/25 01:57:18;;;;;;;10.37;4.40;;;;;;;;;;5015075;28;20445;-61
2021/04/25 01:59:45;;;;;;;4.57;3.90;;;;;;;;;;5014796;28;20453;-62
2021/04/25 02:02:12;;;;;;;5.67;3.87;;;;;;;;;;5014761;28;20838;-61
2021/04/25 02:04:38;;;;;;;6.13;4.77;;;;;;;;;;5014746;28;20442;-61
2021/04/25 02:07:05;;;;;;;8.60;4.47;;;;;;;;;;5013669;28;20858;-61
2021/04/25 02:09:31;;;;;;;9.60;4.50;;;;;;;;;;5014992;28;20466;-61
2021/04/25 02:11:58;;;;;;;7.00;4.90;;;;;;;;;;5014240;28;20539;-61
2021/04/25 02:14:26;;;;;;;5.40;4.37;;;;;;;;;;5014835;28;20450;-61
2021/04/25 02:16:53;;;;;;;5.20;4.03;;;;;;;;;;5011949;28;20460;-62
2021/04/25 02:19:19;;;;;;;6.10;4.60;;;;;;;;;;5014525;28;20449;-61
2021/04/25 02:21:46;;;;;;;6.30;4.83;;;;;;;;;;5013531;28;20842;-61
2021/04/25 02:24:12;;;;;;;6.60;4.40;;;;;;;;;;5014461;28;20461;-61
2021/04/25 02:26:39;;;;;;;5.40;4.50;;;;;;;;;;5031454;28;20452;-62
2021/04/25 02:29:06;;;;;;;6.60;4.40;;;;;;;;;;5034083;28;20449;-61
2021/04/25 02:31:33;;;;;;;4.83;3.83;;;;;;;;;;5032317;28;20480;-61
2021/04/25 02:34:00;;;;;;;4.20;3.80;;;;;;;;;;5034104;28;20970;-61
2021/04/25 02:36:26;;;;;;;8.27;4.77;;;;;;;;;;5013862;28;20450;-61
2021/04/25 02:38:53;;;;;;;5.63;4.63;;;;;;;;;;5014036;28;20453;-61
2021/04/25 02:41:20;;;;;;;7.83;4.43;;;;;;;;;;5025691;28;20454;-61
2021/04/25 02:43:46;;;;;;;5.70;4.60;;;;;;;;;;5014050;28;21024;-61
2021/04/25 02:46:13;;;;;;;9.97;5.03;;;;;;;;;;5013590;28;20454;-61
2021/04/25 02:48:40;;;;;;;8.67;4.83;;;;;;;;;;5013819;28;20959;-61
2021/04/25 02:51:07;;;;;;;5.57;4.30;;;;;;;;;;5016174;28;21004;-61
2021/04/25 02:53:34;;;;;;;9.13;4.90;;;;;;;;;;5013568;28;20985;-61
2021/04/25 02:56:01;;;;;;;7.50;4.57;;;;;;;;;;5013493;28;20462;-61
2021/04/25 02:58:27;;;;;;;5.07;4.40;;;;;;;;;;5013945;28;20472;-61
2021/04/25 03:00:54;;;;;;;8.70;5.63;;;;;;;;;;5013368;28;20452;-61
2021/04/25 03:03:20;;;;;;;8.37;5.37;;;;;;;;;;5013483;28;20476;-61
2021/04/25 03:05:49;;;;;;;6.33;4.93;;;;;;;;;;5012979;28;20457;-61
2021/04/25 03:08:16;;;;;;;8.87;4.73;;;;;;;;;;5013361;28;20953;-61
2021/04/25 03:10:42;;;;;;;10.60;5.40;;;;;;;;;;5017849;28;20482;-61
2021/04/25 03:13:09;;;;;;;5.80;4.83;;;;;;;;;;5013375;28;20477;-61
2021/04/25 03:15:35;;;;;;;6.87;4.67;;;;;;;;;;5012657;28;20457;-61
2021/04/25 03:18:02;;;;;;;5.40;4.50;;;;;;;;;;5013010;28;20453;-61
2021/04/25 03:20:29;;;;;;;5.33;4.50;;;;;;;;;;5012490;28;20458;-61
2021/04/25 03:22:56;;;;;;;6.30;4.33;;;;;;;;;;5013016;28;20811;-61
2021/04/25 03:25:23;;;;;;;7.00;4.43;;;;;;;;;;5013094;28;20456;-61
2021/04/25 03:27:50;;;;;;;6.03;4.47;;;;;;;;;;5013222;28;20449;-61
2021/04/25 03:30:17;;;;;;;7.93;4.90;;;;;;;;;;5012953;28;20497;-61
2021/04/25 03:32:44;;;;;;;6.53;4.70;;;;;;;;;;5013005;28;20538;-61
2021/04/25 03:35:12;;;;;;;7.77;5.30;;;;;;;;;;5012818;28;20449;-61
2021/04/25 03:37:39;;;;;;;7.23;5.60;;;;;;;;;;5013108;28;20450;-61
2021/04/25 03:40:09;;;;;;;6.07;5.23;;;;;;;;;;5012352;28;20945;-61
2021/04/25 03:42:35;;;;;;;6.10;4.67;;;;;;;;;;5012952;28;20887;-61
2021/04/25 03:45:02;;;;;;;7.83;5.30;;;;;;;;;;5012355;28;20462;-61
2021/04/25 03:47:29;;;;;;;6.43;4.87;;;;;;;;;;5012863;28;20457;-61
2021/04/25 03:49:55;;;;;;;10.43;5.60;;;;;;;;;;5012171;28;21066;-61
2021/04/25 03:52:22;;;;;;;13.30;6.50;;;;;;;;;;5012786;28;20462;-61
2021/04/25 03:54:48;;;;;;;5.33;4.53;;;;;;;;;;5012337;28;20937;-61
2021/04/25 03:57:16;;;;;;;5.00;4.30;;;;;;;;;;5012682;28;20450;-61
2021/04/25 03:59:42;;;;;;;7.63;5.10;;;;;;;;;;5012462;28;20449;-61
2021/04/25 04:02:09;;;;;;;11.03;4.63;;;;;;;;;;5012184;28;20457;-61
2021/04/25 04:04:36;;;;;;;6.20;4.70;;;;;;;;;;5014571;28;20449;-61
2021/04/25 04:07:03;;;;;;;8.60;5.27;;;;;;;;;;5012292;28;20452;-61
2021/04/25 04:09:30;;;;;;;6.03;5.50;;;;;;;;;;5012332;28;20449;-61
2021/04/25 04:11:57;;;;;;;7.87;5.53;;;;;;;;;;5012025;28;21030;-61
2021/04/25 04:14:24;;;;;;;5.80;5.30;;;;;;;;;;5011811;28;20449;-61
2021/04/25 04:16:51;;;;;;;5.90;5.20;;;;;;;;;;5012338;28;20445;-61
2021/04/25 04:19:18;;;;;;;6.43;5.70;;;;;;;;;;5011379;28;20820;-61
2021/04/25 04:21:44;;;;;;;5.53;5.03;;;;;;;;;;5021729;28;20963;-61
2021/04/25 04:24:11;;;;;;;7.60;6.10;;;;;;;;;;5031852;28;20449;-61
2021/04/25 04:26:37;;;;;;;7.23;5.90;;;;;;;;;;5019514;28;20461;-61
2021/04/25 04:29:04;;;;;;;6.10;5.00;;;;;;;;;;5012486;28;20461;-61
2021/04/25 04:31:32;;;;;;;7.83;6.30;;;;;;;;;;5011898;28;20485;-61
2021/04/25 04:33:58;;;;;;;6.23;5.60;;;;;;;;;;5011466;28;20477;-61
2021/04/25 04:36:25;;;;;;;6.03;5.53;;;;;;;;;;5011583;28;20508;-61
2021/04/25 04:38:51;;;;;;;7.30;6.50;;;;;;;;;;5012267;28;20442;-61
2021/04/25 04:41:18;;;;;;;8.63;6.20;;;;;;;;;;5011070;28;20442;-61
2021/04/25 04:43:45;;;;;;;8.43;5.97;;;;;;;;;;5012384;28;20492;-61
2021/04/25 04:46:11;;;;;;;7.53;5.70;;;;;;;;;;5011026;28;20832;-61
2021/04/25 04:48:39;;;;;;;6.17;5.60;;;;;;;;;;5012030;28;20468;-61
2021/04/25 04:51:05;;;;;;;8.10;6.33;;;;;;;;;;5011810;28;20487;-61
2021/04/25 04:53:32;;;;;;;7.33;5.73;;;;;;;;;;5011862;28;20480;-61
2021/04/25 04:55:58;;;;;;;9.90;6.97;;;;;;;;;;5011232;28;20941;-61
2021/04/25 04:58:25;;;;;;;5.83;5.33;;;;;;;;;;5011686;28;20511;-61
2021/04/25 05:00:52;;;;;;;6.40;5.03;;;;;;;;;;5011374;28;20450;-61
2021/04/25 05:03:18;;;;;;;8.93;5.40;;;;;;;;;;5011688;28;20461;-61
2021/04/25 05:05:46;;;;;;;5.87;5.07;;;;;;;;;;5011167;28;20825;-61
2021/04/25 05:08:12;;;;;;;7.00;5.80;;;;;;;;;;5011784;28;20446;-61
2021/04/25 05:10:39;;;;;;;6.57;5.70;;;;;;;;;;5011132;28;20504;-62
2021/04/25 05:13:09;;;;;;;9.10;6.57;;;;;;;;;;5011593;28;20485;-61
2021/04/25 05:15:36;;;;;;;6.90;5.70;;;;;;;;;;5011848;28;20457;-61
2021/04/25 05:18:03;;;;;;;6.63;5.80;;;;;;;;;;5012450;28;20459;-62
2021/04/25 05:20:29;;;;;;;8.73;5.60;;;;;;;;;;5014575;28;20449;-61
2021/04/25 05:22:57;;;;;;;6.10;5.40;;;;;;;;;;5015241;28;20473;-61
2021/04/25 05:25:23;;;;;;;6.50;5.50;;;;;;;;;;5015449;28;20449;-61
2021/04/25 05:27:50;;;;;;;7.23;5.57;;;;;;;;;;5015501;28;20465;-62
2021/04/25 05:30:17;;;;;;;7.50;5.60;;;;;;;;;;5015397;28;20999;-61
2021/04/25 05:32:44;;;;;;;6.40;5.80;;;;;;;;;;5015676;28;20501;-61
2021/04/25 05:35:14;;;;;;;6.80;5.30;;;;;;;;;;5014923;28;20952;-61
2021/04/25 05:37:40;;;;;;;8.60;5.63;;;;;;;;;;5014515;28;20456;-61
2021/04/25 05:40:09;;;;;;;6.00;5.40;;;;;;;;;;5015133;28;20974;-63
2021/04/25 05:42:36;;;;;;;7.30;5.60;;;;;;;;;;5014595;28;20474;-63
2021/04/25 05:45:03;;;;;;;6.20;5.50;;;;;;;;;;5015433;28;20453;-63
2021/04/25 05:47:30;;;;;;;7.20;5.73;;;;;;;;;;5014329;28;20952;-63
2021/04/25 05:49:57;;;;;;;8.57;5.20;;;;;;;;;;5014880;28;20673;-63
2021/04/25 05:52:23;;;;;;;6.07;5.47;;;;;;;;;;5014491;28;20489;-62
2021/04/25 05:54:50;;;;;;;8.77;5.27;;;;;;;;;;5014893;28;20449;-63
2021/04/25 05:57:17;;;;;;;7.07;6.07;;;;;;;;;;5014447;28;20453;-62
2021/04/25 05:59:44;;;;;;;5.73;4.67;;;;;;;;;;5014991;28;20460;-63
2021/04/25 06:02:10;;;;;;;5.20;4.70;;;;;;;;;;5014311;28;20469;-62
2021/04/25 06:04:40;;;;;;;5.57;5.07;;;;;;;;;;5015500;28;20457;-63
2021/04/25 06:07:07;;;;;;;5.80;4.80;;;;;;;;;;5017702;28;20453;-63
2021/04/25 06:09:34;;;;;;;5.93;4.80;;;;;;;;;;5016583;28;20449;-63
2021/04/25 06:12:00;;;;;;;7.60;4.60;;;;;;;;;;5015228;28;20996;-63
2021/04/25 06:14:28;;;;;;;6.67;4.37;;;;;;;;;;5016036;28;20433;-63
2021/04/25 06:16:54;;;;;;;9.27;5.40;;;;;;;;;;5015135;28;20453;-64
2021/04/25 06:19:21;;;;;;;8.67;4.97;;;;;;;;;;5014790;28;20472;-63
2021/04/25 06:21:47;;;;;;;7.97;4.60;;;;;;;;;;5014494;28;20450;-63
2021/04/25 06:24:14;;;;;;;6.40;4.10;;;;;;;;;;5014663;28;20460;-63
2021/04/25 06:26:41;;;;;;;5.63;3.90;;;;;;;;;;5013977;28;20465;-63
2021/04/25 06:29:07;;;;;;;4.63;3.70;;;;;;;;;;5014407;28;20457;-62
2021/04/25 06:31:35;;;;;;;4.10;3.53;;;;;;;;;;5013106;28;20489;-63
2021/04/25 06:34:04;;;;;;;4.40;3.50;;;;;;;;;;5014578;28;20461;-63
2021/04/25 06:36:33;;;;;;;4.93;3.50;;;;;;;;;;5013822;28;20445;-61
2021/04/25 06:39:03;;;;;;;5.10;2.50;;;;;;;;;;5014213;28;20450;-61
2021/04/25 06:41:29;;;;;;;5.20;1.97;;;;;;;;;;5013436;28;20870;-61
2021/04/25 06:43:57;;;;;;;3.10;1.33;;;;;;;;;;5013326;28;20485;-59
2021/04/25 06:46:24;;;;;;;2.60;1.53;;;;;;;;;;5011591;28;20549;-59
2021/04/25 06:48:52;;;;;;;3.10;1.30;;;;;;;;;;5005158;28;20465;-59
2021/04/25 06:51:18;;;;;;;3.70;1.37;;;;;;;;;;5014094;28;20486;-59
2021/04/25 06:53:45;;;;;;;2.77;1.33;;;;;;;;;;5014711;28;20497;-62
2021/04/25 06:56:12;;;;;;;3.40;1.60;;;;;;;;;;5014865;28;20445;-60
2021/04/25 06:58:38;;;;;;;2.67;1.20;;;;;;;;;;5014041;28;20503;-59
2021/04/25 07:01:05;;;;;;;4.97;1.30;;;;;;;;;;5014033;28;20827;-60
2021/04/25 07:03:31;;;;;;;2.53;1.27;;;;;;;;;;5014117;28;20481;-60
2021/04/25 07:05:59;;;;;;;2.73;1.20;;;;;;;;;;5013559;28;20461;-60
2021/04/25 07:08:26;;;;;;;3.53;1.50;;;;;;;;;;5013467;28;20462;-60
2021/04/25 07:10:53;;;;;;;2.23;0.97;;;;;;;;;;5013643;28;20492;-60
2021/04/25 07:13:21;;;;;;;2.80;1.20;;;;;;;;;;5013095;28;20481;-61
2021/04/25 07:15:47;;;;;;;1.90;1.20;;;;;;;;;;5013321;28;20819;-60
2021/04/25 07:18:14;;;;;;;1.73;1.00;;;;;;;;;;5010163;28;20476;-60
2021/04/25 07:20:41;;;;;;;2.83;1.23;;;;;;;;;;5013364;28;20861;-60
2021/04/25 07:23:08;;;;;;;2.03;1.27;;;;;;;;;;5009708;28;20486;-60
2021/04/25 07:25:35;;;;;;;1.80;1.00;;;;;;;;;;5008662;28;20464;-60
2021/04/25 07:28:02;;;;;;;1.37;0.90;;;;;;;;;;5012724;28;20957;-60
2021/04/25 07:30:29;;;;;;;1.60;0.90;;;;;;;;;;5013440;28;20457;-60
2021/04/25 07:32:55;;;;;;;2.13;0.90;;;;;;;;;;5013109;28;20469;-60
2021/04/25 07:35:22;;;;;;;1.67;0.90;;;;;;;;;;5013089;28;20933;-60
2021/04/25 07:37:49;;;;;;;5.80;1.27;;;;;;;;;;5012905;28;20465;-60
2021/04/25 07:40:17;;;;;;;2.13;1.30;;;;;;;;;;5012803;28;21031;-60
2021/04/25 07:42:44;;;;;;;3.20;1.30;;;;;;;;;;5012232;28;21019;-60
2021/04/25 07:45:12;;;;;;;1.83;0.77;;;;;;;;;;5013040;28;21178;-60
2021/04/25 07:47:40;;;;;;;2.97;0.90;;;;;;;;;;5013114;28;20841;-60
2021/04/25 07:50:07;;;;;;;4.03;0.77;;;;;;;;;;5013001;28;20452;-60
2021/04/25 07:52:34;;;;;;;2.40;0.87;;;;;;;;;;5012753;28;20493;-60
2021/04/25 07:55:00;;;;;;;1.73;0.63;;;;;;;;;;5012763;28;20859;-60
2021/04/25 07:57:28;;;;;;;0.90;0.70;;;;;;;;;;5011977;28;20453;-60
2021/04/25 07:59:54;;;;;;;3.77;1.10;;;;;;;;;;5012849;28;20442;-59
2021/04/25 08:02:22;;;;;;;2.27;1.10;;;;;;;;;;5012650;28;20470;-60
2021/04/25 08:04:49;;;;;;;2.50;1.00;;;;;;;;;;5012580;28;20488;-60
2021/04/25 08:07:16;;;;;;;2.53;0.70;;;;;;;;;;5012380;28;20454;-60
2021/04/25 08:09:43;;;;;;;1.40;0.80;;;;;;;;;;5012396;28;20457;-61
2021/04/25 08:12:09;;;;;;;1.63;0.70;;;;;;;;;;5012490;28;20551;-60
2021/04/25 08:14:37;;;;;;;1.50;0.77;;;;;;;;;;5011912;28;20473;-60
2021/04/25 08:17:04;;;;;;;1.00;0.70;;;;;;;;;;5024980;28;20460;-60
2021/04/25 08:19:30;;;;;;;1.50;0.70;;;;;;;;;;5019811;28;20452;-60
2021/04/25 08:21:57;;;;;;;1.50;1.00;;;;;;;;;;5012322;28;20469;-60
2021/04/25 08:24:24;;;;;;;1.10;0.53;;;;;;;;;;5030055;28;20966;-60
2021/04/25 08:26:51;;;;;;;1.70;1.10;;;;;;;;;;5022372;28;20959;-60
2021/04/25 08:29:18;;;;;;;1.27;0.73;;;;;;;;;;4998807;28;20470;-60
2021/04/25 08:31:46;;;;;;;0.90;0.40;;;;;;;;;;5001139;28;20488;-60
2021/04/25 08:34:12;;;;;;;1.20;0.70;;;;;;;;;;5019173;28;20461;-61
2021/04/25 08:36:39;;;;;;;0.90;0.60;;;;;;;;;;5011862;28;20456;-60
2021/04/25 08:39:06;;;;;;;1.23;0.70;;;;;;;;;;5012522;28;20473;-60
2021/04/25 08:41:32;;;;;;;1.83;0.67;;;;;;;;;;5012061;28;21155;-60
2021/04/25 08:44:01;;;;;;;2.00;0.60;;;;;;;;;;5011933;28;20477;-60
2021/04/25 08:46:28;;;;;;;1.73;0.90;;;;;;;;;;5012171;28;20544;-60
2021/04/25 08:48:56;;;;;;;1.43;0.60;;;;;;;;;;5012593;28;20507;-60
2021/04/25 08:51:23;;;;;;;10.57;2.00;;;;;;;;;;5011406;28;20489;-65
2021/04/25 08:53:50;;;;;;;6.80;1.80;;;;;;;;;;5011736;28;20480;-61
2021/04/25 08:56:17;;;;;;;1.33;0.87;;;;;;;;;;5011950;28;20454;-60
2021/04/25 08:58:44;;;;;;;3.60;1.20;;;;;;;;;;5011282;28;20457;-59
2021/04/25 09:01:11;;;;;;;1.90;1.30;;;;;;;;;;5011661;28;20451;-59
2021/04/25 09:03:38;;;;;;;1.63;1.10;;;;;;;;;;5011926;28;20473;-59
2021/04/25 09:06:07;;;;;;;1.83;1.00;;;;;;;;;;5012252;28;20458;-60
2021/04/25 09:08:47;;;;;;;1.60;1.03;;;;;;;;;;5011876;28;20830;-60
2021/04/25 09:11:31;;;;;;;1.40;1.10;;;;;;;;;;5011917;28;20493;-60
2021/04/25 09:14:13;;;;;;;7.07;1.50;;;;;;;;;;5009873;28;20477;-60
2021/04/25 09:16:40;;;;;;;1.37;1.00;;;;;;;;;;4998984;28;21004;-60
2021/04/25 09:19:07;;;;;;;2.37;1.10;;;;;;;;;;5014142;28;20448;-60
2021/04/25 09:21:34;;;;;;;1.60;1.20;;;;;;;;;;5022003;28;20446;-60
2021/04/25 09:24:16;;;;;;;2.53;1.67;;;;;;;;;;5000013;28;20454;-60
2021/04/25 09:26:42;;;;;;;2.60;1.50;;;;;;;;;;5010605;28;20956;-60
2021/04/25 09:29:09;;;;;;;1.70;1.60;;;;;;;;;;5011386;28;20449;-60
2021/04/25 09:31:39;;;;;;;1.60;1.50;;;;;;;;;;5011706;28;20496;-60
2021/04/25 09:34:06;;;;;;;2.57;1.57;;;;;;;;;;5011769;28;20430;-60
2021/04/25 09:36:33;;;;;;;1.60;1.50;;;;;;;;;;5011015;28;20460;-60
2021/04/25 09:39:10;;;;;;;2.03;1.80;;;;;;;;;;5012070;28;20549;-60
2021/04/25 09:41:36;;;;;;;2.10;1.80;;;;;;;;;;5011577;28;20449;-59
2021/04/25 09:44:03;;;;;;;2.27;1.50;;;;;;;;;;5011627;28;20457;-60
2021/04/25 09:46:45;;;;;;;1.83;1.60;;;;;;;;;;5000214;28;21176;-60
2021/04/25 09:49:12;;;;;;;1.70;1.50;;;;;;;;;;5011467;28;20450;-60
2021/04/25 09:51:43;;;;;;;2.07;1.70;;;;;;;;;;5011539;28;20567;-59
2021/04/25 09:54:10;;;;;;;1.80;1.40;;;;;;;;;;5014128;28;20818;-60
2021/04/25 09:56:38;;;;;;;1.77;1.40;;;;;;;;;;5014807;28;20511;-60
2021/04/25 09:59:05;;;;;;;1.57;1.47;;;;;;;;;;5012330;28;20548;-61
2021/04/25 10:01:33;;;;;;;1.37;1.03;;;;;;;;;;5011328;28;20446;-61
2021/04/25 10:04:00;;;;;;;1.97;1.00;;;;;;;;;;5024116;28;20523;-61
2021/04/25 10:06:29;;;;;;;1.10;0.90;;;;;;;;;;5016293;28;20541;-61
2021/04/25 10:08:55;;;;;;;2.47;1.27;;;;;;;;;;5033075;28;20593;-60
2021/04/25 10:11:25;;;;;;;1.20;0.87;;;;;;;;;;5031947;28;21050;-59
2021/04/25 10:13:51;;;;;;;2.03;0.80;;;;;;;;;;5034354;28;20484;-59
2021/04/25 10:16:19;;;;;;;1.60;0.87;;;;;;;;;;5030005;28;20453;-58
2021/04/25 10:18:46;;;;;;;2.50;1.10;;;;;;;;;;5014963;28;20792;-59
2021/04/25 10:21:13;;;;;;;2.93;0.90;;;;;;;;;;5014061;28;20861;-58
2021/04/25 10:23:39;;;;;;;1.80;0.83;;;;;;;;;;5014896;28;20469;-59
2021/04/25 10:26:09;;;;;;;2.87;1.03;;;;;;;;;;5014281;28;20462;-59
2021/04/25 10:28:39;;;;;;;2.07;0.90;;;;;;;;;;5014668;28;20941;-59
2021/04/25 10:31:07;;;;;;;1.40;0.67;;;;;;;;;;5013828;28;20500;-59
2021/04/25 10:33:53;;;;;;;1.50;0.90;;;;;;;;;;5014271;28;20465;-58
2021/04/25 10:36:20;;;;;;;1.30;0.70;;;;;;;;;;5013836;28;20469;-59
2021/04/25 10:38:46;;;;;;;1.90;0.60;;;;;;;;;;5014294;28;20457;-59
2021/04/25 10:41:20;;;;;;;3.50;0.70;;;;;;;;;;5013777;28;20447;-59
2021/04/25 10:43:58;;;;;;;1.23;0.63;;;;;;;;;;5020084;28;20465;-59
2021/04/25 10:46:25;;;;;;;0.80;0.50;;;;;;;;;;5020190;28;20948;-59
2021/04/25 10:48:51;;;;;;;2.23;0.90;;;;;;;;;;5026040;28;20456;-59
2021/04/25 10:51:18;;;;;;;2.63;0.80;;;;;;;;;;5021746;28;20898;-59
2021/04/25 10:53:47;;;;;;;1.90;0.87;;;;;;;;;;5015032;28;20477;-58
2021/04/25 10:56:31;;;;;;;1.00;0.60;;;;;;;;;;5013743;28;20507;-59
2021/04/25 10:59:26;;;;;;;1.40;0.67;;;;;;;;;;5013307;28;20438;-59
2021/04/25 11:01:54;;;;;;;1.30;0.80;;;;;;;;;;5014255;28;20441;-59
2021/04/25 11:04:39;;;;;;;1.07;0.70;;;;;;;;;;5013801;28;20828;-61
2021/04/25 11:07:33;;;;;;;1.77;0.80;;;;;;;;;;5013188;28;20460;-61
2021/04/25 11:10:00;;;;;;;1.07;0.53;;;;;;;;;;5013516;28;20457;-60
2021/04/25 11:12:37;;;;;;;1.10;0.70;;;;;;;;;;5013091;28;20613;-58
2021/04/25 11:15:04;;;;;;;1.30;0.63;;;;;;;;;;5013626;28;20453;-59
2021/04/25 11:17:31;;;;;;;1.00;0.70;;;;;;;;;;5003838;28;20457;-59
2021/04/25 11:19:58;;;;;;;4.17;0.80;;;;;;;;;;5013512;28;20453;-60
2021/04/25 11:22:43;;;;;;;1.43;0.60;;;;;;;;;;5013080;28;20907;-60
2021/04/25 11:25:31;;;;;;;1.10;0.50;;;;;;;;;;5014432;28;20458;-59
2021/04/25 11:27:58;;;;;;;1.33;0.60;;;;;;;;;;5007625;28;20461;-59
2021/04/25 11:30:35;;;;;;;1.10;0.83;;;;;;;;;;5014425;28;20535;-59
2021/04/25 11:33:16;;;;;;;1.20;0.60;;;;;;;;;;5012715;28;20500;-59
2021/04/25 11:35:44;;;;;;;1.70;0.70;;;;;;;;;;5011420;28;20449;-59
2021/04/25 11:38:12;;;;;;;1.90;0.80;;;;;;;;;;5012906;28;20487;-59
2021/04/25 11:40:39;;;;;;;1.37;0.90;;;;;;;;;;5012978;28;20449;-59
2021/04/25 11:43:05;;;;;;;1.97;0.70;;;;;;;;;;5012764;28;20484;-58
2021/04/25 11:45:32;;;;;;;1.37;0.70;;;;;;;;;;5013024;28;20464;-59
2021/04/25 11:47:59;;;;;;;1.30;0.70;;;;;;;;;;5012952;28;20476;-59
2021/04/25 11:50:30;;;;;;;2.70;0.70;;;;;;;;;;5012141;28;20450;-59
2021/04/25 11:52:58;;;;;;;0.80;0.57;;;;;;;;;;5012816;28;20486;-60
2021/04/25 11:55:25;;;;;;;0.80;0.60;;;;;;;;;;5012499;28;20458;-59
2021/04/25 11:57:52;;;;;;;1.10;0.80;;;;;;;;;;5012635;28;20553;-62
2021/04/25 12:00:20;;;;;;;0.80;0.50;;;;;;;;;;5012288;28;20541;-60
2021/04/25 12:02:51;;;;;;;1.73;0.60;;;;;;;;;;5012041;28;20992;-59
2021/04/25 12:05:21;;;;;;;1.97;0.70;;;;;;;;;;5023543;28;20462;-59
2021/04/25 12:07:49;;;;;;;1.20;0.70;;;;;;;;;;5012276;28;20449;-60
2021/04/25 12:10:18;;;;;;;1.00;0.50;;;;;;;;;;5012719;28;20555;-59
2021/04/25 12:13:01;;;;;;;1.57;0.60;;;;;;;;;;5011704;28;20486;-59
2021/04/25 12:15:28;;;;;;;1.10;0.50;;;;;;;;;;5012742;28;20916;-58
2021/04/25 12:17:55;;;;;;;2.03;1.00;;;;;;;;;;5011166;28;20520;-60
2021/04/25 12:20:22;;;;;;;1.17;0.60;;;;;;;;;;5012300;28;20476;-59
2021/04/25 12:22:49;;;;;;;0.80;0.60;;;;;;;;;;5012273;28;20462;-59
2021/04/25 12:25:16;;;;;;;1.00;0.67;;;;;;;;;;5001281;28;21029;-60
2021/04/25 12:27:50;;;;;;;0.80;0.50;;;;;;;;;;5011072;28;20799;-59
2021/04/25 12:30:18;;;;;;;1.20;0.60;;;;;;;;;;5011484;28;20453;-59
2021/04/25 12:32:44;;;;;;;1.77;0.67;;;;;;;;;;5012292;28;20494;-59
2021/04/25 12:35:11;;;;;;;1.20;0.60;;;;;;;;;;5012563;28;20523;-59
2021/04/25 12:37:38;;;;;;;1.20;0.60;;;;;;;;;;5012255;28;20450;-59
2021/04/25 12:40:06;;;;;;;0.90;0.60;;;;;;;;;;5011394;28;21090;-59
2021/04/25 12:42:33;;;;;;;2.83;0.70;;;;;;;;;;5012046;28;20466;-59
2021/04/25 12:45:00;;;;;;;1.10;0.70;;;;;;;;;;5011554;28;20461;-59
2021/04/25 12:47:30;;;;;;;1.03;0.63;;;;;;;;;;4993158;28;20450;-60
2021/04/25 12:49:58;;;;;;;1.57;0.60;;;;;;;;;;4998833;28;20961;-59
2021/04/25 12:52:35;;;;;;;1.57;0.70;;;;;;;;;;5011378;28;21063;-59
2021/04/25 12:55:01;;;;;;;1.27;0.60;;;;;;;;;;5011575;28;20445;-60
2021/04/25 12:57:29;;;;;;;1.10;0.50;;;;;;;;;;5011743;28;20454;-60
2021/04/25 12:59:56;;;;;;;0.80;0.47;;;;;;;;;;5011315;28;20453;-59
2021/04/25 13:02:31;;;;;;;0.90;0.50;;;;;;;;;;5011577;28;20461;-59
2021/04/25 13:05:04;;;;;;;1.00;0.60;;;;;;;;;;5013758;28;20457;-59
2021/04/25 13:07:38;;;;;;;1.17;0.60;;;;;;;;;;5015493;28;20457;-60
2021/04/25 13:10:15;;;;;;;0.90;0.60;;;;;;;;;;5011721;28;20453;-60
2021/04/25 13:12:42;;;;;;;2.10;0.70;;;;;;;;;;5011943;28;20489;-59
2021/04/25 13:15:10;;;;;;;1.83;0.70;;;;;;;;;;5010525;28;20837;-66
2021/04/25 13:17:39;;;;;;;1.10;0.50;;;;;;;;;;5007027;28;20457;-60
2021/04/25 13:20:07;;;;;;;1.70;0.63;;;;;;;;;;5012239;28;20450;-59
2021/04/25 13:22:33;;;;;;;0.90;0.60;;;;;;;;;;5021473;28;20479;-60
2021/04/25 13:25:00;;;;;;;0.93;0.50;;;;;;;;;;5011059;28;20476;-60
2021/04/25 13:27:27;;;;;;;1.10;0.60;;;;;;;;;;5012476;28;20454;-59
2021/04/25 13:29:53;;;;;;;1.50;0.50;;;;;;;;;;5024186;28;20857;-60
2021/04/25 13:32:21;;;;;;;2.53;0.70;;;;;;;;;;5018297;28;20486;-59
2021/04/25 13:34:48;;;;;;;1.03;0.50;;;;;;;;;;5017158;28;20453;-60
2021/04/25 13:37:15;;;;;;;1.63;0.50;;;;;;;;;;5024489;28;20469;-60
2021/04/25 13:39:42;;;;;;;1.43;0.60;;;;;;;;;;5020508;28;20457;-60
2021/04/25 13:42:09;;;;;;;0.70;0.40;;;;;;;;;;5035216;28;20468;-60
2021/04/25 13:44:36;;;;;;;1.23;0.60;;;;;;;;;;5024568;28;20453;-60
2021/04/25 13:47:03;;;;;;;1.10;0.60;;;;;;;;;;5034416;28;20463;-60
2021/04/25 13:49:30;;;;;;;1.23;0.60;;;;;;;;;;5024375;28;20967;-60
2021/04/25 13:51:57;;;;;;;0.90;0.60;;;;;;;;;;5017141;28;20485;-60
2021/04/25 13:54:24;;;;;;;1.20;0.53;;;;;;;;;;5025770;28;20540;-60
2021/04/25 13:56:51;;;;;;;1.20;0.50;;;;;;;;;;5015225;28;20521;-60
2021/04/25 13:59:17;;;;;;;2.20;0.70;;;;;;;;;;5015135;28;20461;-60
2021/04/25 14:01:44;;;;;;;1.10;0.73;;;;;;;;;;5014357;28;20456;-60
2021/04/25 14:04:11;;;;;;;1.00;0.60;;;;;;;;;;5015325;28;20457;-60
2021/04/25 14:06:38;;;;;;;1.20;0.70;;;;;;;;;;5015032;28;20453;-60
2021/04/25 14:09:07;;;;;;;1.67;0.60;;;;;;;;;;5014829;28;20442;-61
2021/04/25 14:11:34;;;;;;;1.20;0.50;;;;;;;;;;5014537;28;21082;-60
2021/04/25 14:14:01;;;;;;;0.83;0.60;;;;;;;;;;5014396;28;20480;-60
2021/04/25 14:16:28;;;;;;;0.90;0.50;;;;;;;;;;5001430;28;20459;-60
2021/04/25 14:18:56;;;;;;;0.80;0.40;;;;;;;;;;5003574;28;20758;-60
2021/04/25 14:21:23;;;;;;;1.07;0.60;;;;;;;;;;5014630;28;20461;-60
2021/04/25 14:23:50;;;;;;;0.90;0.53;;;;;;;;;;5011861;28;20489;-60
2021/04/25 14:26:17;;;;;;;0.90;0.60;;;;;;;;;;5012116;28;20488;-60
2021/04/25 14:28:44;;;;;;;1.20;0.63;;;;;;;;;;5012283;28;20512;-60
2021/04/25 14:31:11;;;;;;;1.10;0.50;;;;;;;;;;5010052;28;20470;-60
2021/04/25 14:33:37;;;;;;;1.07;0.63;;;;;;;;;;5008470;28;21308;-60
2021/04/25 14:36:05;;;;;;;1.53;0.80;;;;;;;;;;5017195;28;20522;-60
2021/04/25 14:38:32;;;;;;;1.77;0.73;;;;;;;;;;5021938;28;20468;-60
2021/04/25 14:41:00;;;;;;;0.90;0.50;;;;;;;;;;5014702;28;20453;-60
2021/04/25 14:43:28;;;;;;;1.20;0.70;;;;;;;;;;5017497;28;20519;-60
2021/04/25 14:45:55;;;;;;;1.33;0.70;;;;;;;;;;5019473;28;20451;-60
2021/04/25 14:48:21;;;;;;;1.13;0.93;;;;;;;;;;5033672;28;20932;-60